Aviation Digital Data Service (ADDS)

Output produced by METARs form (1541 UTC 19 April 2015)
found at http://www.aviationweather.gov/adds/metars/
 
KLNS 191453Z 13009KT 10SM CLR 16/01 A3020 RMK AO2 SLP227 T01560011 51007
KLNS 191353Z 11012KT 10SM CLR 14/M02 A3020 RMK AO2 SLP225 T01441022
KLNS 191253Z 09015G20KT 10SM CLR 13/M02 A3019 RMK AO2 SLP223 T01281017
KLNS 191153Z 06007KT 10SM CLR 11/01 A3018 RMK AO2 SLP220 T01110006 10133 20094 51022
KLNS 191053Z 00000KT 10SM CLR 11/M03 A3017 RMK AO2 SLP216 T01061028
KLNS 190953Z 05005KT 10SM CLR 09/M02 A3013 RMK AO2 SLP202 T00941017
KLNS 190853Z AUTO 06004KT 10SM CLR 11/M02 A3012 RMK AO2 SLP198 T01061017 52010
KLNS 190753Z AUTO 05007KT 10SM CLR 12/M02 A3011 RMK AO2 SLP193 T01171022
KLNS 190653Z AUTO 03006KT 10SM CLR 12/M02 A3010 RMK AO2 SLP192 T01221022
KLNS 190553Z AUTO 04005KT 10SM CLR 13/M02 A3009 RMK AO2 SLP188 T01281022 10222 20128 51024
KLNS 190453Z AUTO 07005KT 10SM CLR 14/M01 A3007 RMK AO2 SLP181 T01441011 402500083
KLNS 190353Z AUTO 05010KT 10SM CLR 17/01 A3005 RMK AO2 SLP174 T01670006
KLNS 190253Z 04012KT 10SM CLR 18/05 A3002 RMK AO2 SLP162 T01830050 53029
KLNS 190153Z 33007KT 10SM CLR 18/07 A2999 RMK AO2 SLP153 T01830067
KLNS 190053Z 26004KT 10SM CLR 20/06 A2995 RMK AO2 SLP140 T02000061
KLNS 182353Z 00000KT 10SM CLR 22/06 A2993 RMK AO2 SLP133 T02170061 10250 20211 50004
KLNS 182253Z 27005KT 10SM CLR 23/06 A2994 RMK AO2 SLP136 T02330056
KLNS 182153Z 26009KT 10SM CLR 24/05 A2993 RMK AO2 SLP133 T02440050
KLNS 182053Z 26009KT 10SM CLR 25/06 A2992 RMK AO2 SLP129 T02500061 56014
KLNS 181953Z 29011KT 10SM CLR 25/06 A2992 RMK AO2 SLP130 T02500056
KLNS 181853Z 26009KT 10SM CLR 24/06 A2994 RMK AO2 SLP136 T02440061
KLNS 181753Z 33007KT 10SM CLR 24/06 A2996 RMK AO2 SLP143 T02390061 10239 20122 58024
KLNS 181653Z 28005KT 10SM CLR 23/07 A2998 RMK AO2 SLP151 T02280067
KLNS 181553Z VRB04KT 10SM CLR 22/08 A3001 RMK AO2 SLP160 T02220078
KLNS 181453Z 00000KT 10SM CLR 21/08 A3003 RMK AO2 SLP167 T02060078 58001
KLNS 181353Z 26004KT 10SM CLR 19/09 A3004 RMK AO2 SLP170 T01940094
KLNS 181253Z 28003KT 9SM CLR 16/11 A3003 RMK AO2 SLP169 T01610111
KLNS 181153Z 27004KT 5SM BR CLR 12/10 A3003 RMK AO2 SLP168 70001 T01170100 10122 20083 51017
KLNS 181053Z 29004KT 4SM BR CLR 09/07 A3002 RMK AO2 SLP165 T00890072
KLNS 180953Z AUTO 26005KT 6SM BR CLR 09/08 A3000 RMK AO2 SLP157 T00940078
KLNS 180853Z AUTO 00000KT 5SM BR CLR 10/09 A2998 RMK AO2 SLP151 T01000089 56001
KLNS 180753Z AUTO 26003KT 6SM BR CLR 11/08 A2998 RMK AO2 SLP151 T01060083
KLNS 180653Z AUTO 29005KT 6SM BR CLR 11/09 A2998 RMK AO2 SLP152 T01060089
KLNS 180553Z AUTO 00000KT 6SM BR CLR 12/09 A2999 RMK AO2 SLP152 T01170094 10189 20111 50003
KLNS 180453Z AUTO 00000KT 6SM HZ CLR 12/09 A2999 RMK AO2 SLP154 T01220094 402280111
KLNS 180353Z AUTO 28004KT 7SM CLR 14/10 A2998 RMK AO2 SLP151 T01390100